createdAt,value
2023-04-10T00:00:08.456Z,9.588623047
2023-04-10T00:01:08.921Z,9.598693848
2023-04-10T00:02:09.549Z,9.598693848
2023-04-10T00:03:10.165Z,9.618835449
2023-04-10T00:04:10.746Z,9.578552246
2023-04-10T00:05:11.072Z,9.618835449
2023-04-10T00:06:11.496Z,9.528198242
2023-04-10T00:07:11.982Z,9.518127441
2023-04-10T00:08:12.565Z,9.49798584
2023-04-10T00:09:13.095Z,9.477844238
2023-04-10T00:10:13.638Z,9.417419434
2023-04-10T00:11:14.129Z,9.49798584
2023-04-10T00:12:14.649Z,9.518127441
2023-04-10T00:13:15.138Z,9.477844238
2023-04-10T00:14:15.674Z,9.37713623
2023-04-10T00:15:16.215Z,9.336853027
2023-04-10T00:16:16.857Z,9.316711426
2023-04-10T00:17:17.312Z,9.316711426
2023-04-10T00:18:17.884Z,9.316711426
2023-04-10T00:19:18.431Z,9.316711426
2023-04-10T00:20:19.038Z,9.306640625
2023-04-10T00:21:19.576Z,9.256286621
2023-04-10T00:22:20.050Z,9.226074219
2023-04-10T00:23:20.542Z,9.216003418
2023-04-10T00:24:21.026Z,9.165649414
2023-04-10T00:25:52.329Z,9.165649414
2023-04-10T00:26:52.896Z,9.155578613
2023-04-10T00:27:53.433Z,9.195861816
2023-04-10T00:28:53.950Z,9.226074219
2023-04-10T00:29:54.506Z,9.226074219
2023-04-10T00:30:55.115Z,9.23614502
2023-04-10T00:31:55.636Z,9.266357422
2023-04-10T00:32:56.102Z,9.316711426
2023-04-10T00:33:56.627Z,9.346923828
2023-04-10T00:34:57.137Z,9.336853027
2023-04-10T00:35:57.747Z,9.346923828
2023-04-10T00:36:58.180Z,9.306640625
2023-04-10T00:37:58.702Z,9.23614502
2023-04-10T00:38:59.185Z,9.266357422
2023-04-10T00:39:59.683Z,9.266357422
2023-04-10T00:41:00.192Z,9.316711426
2023-04-10T00:42:00.766Z,9.316711426
2023-04-10T00:43:01.297Z,9.23614502
2023-04-10T00:44:01.933Z,9.226074219
2023-04-10T00:45:02.776Z,9.165649414
2023-04-10T00:46:03.409Z,9.11529541
2023-04-10T00:47:03.894Z,9.075012207
2023-04-10T00:48:04.417Z,9.064941406
2023-04-10T00:49:04.965Z,9.034729004
2023-04-10T00:50:05.514Z,8.984375
2023-04-10T00:51:06.126Z,9.004516602
2023-04-10T00:52:06.779Z,9.014587402
2023-04-10T00:53:07.320Z,9.004516602
2023-04-10T00:54:07.919Z,9.004516602
2023-04-10T00:55:08.505Z,8.964233398
2023-04-10T00:56:09.246Z,8.913879395
2023-04-10T00:57:09.756Z,8.85345459
2023-04-10T00:58:10.407Z,8.85345459
2023-04-10T00:59:11.010Z,8.893737793
2023-04-10T01:00:11.636Z,8.913879395
2023-04-10T01:01:12.291Z,8.85345459
2023-04-10T01:02:12.835Z,8.913879395
2023-04-10T01:03:13.555Z,8.893737793
2023-04-10T01:04:14.050Z,8.893737793
2023-04-10T01:05:14.401Z,9.014587402
2023-04-10T01:06:15.035Z,9.034729004
2023-04-10T01:07:15.466Z,8.934020996
2023-04-10T01:08:15.953Z,8.823242188
2023-04-10T01:09:16.634Z,8.762817383
2023-04-10T01:10:17.219Z,8.73260498
2023-04-10T01:11:17.783Z,8.782958984
2023-04-10T01:12:18.482Z,8.823242188
2023-04-10T01:13:18.994Z,8.793029785
2023-04-10T01:14:19.785Z,8.762817383
2023-04-10T01:15:20.473Z,8.793029785
2023-04-10T01:16:51.666Z,8.803100586
2023-04-10T01:17:52.269Z,8.752746582
2023-04-10T01:18:52.917Z,8.803100586
2023-04-10T01:19:53.429Z,8.863525391
2023-04-10T01:20:54.004Z,8.833312988
2023-04-10T01:21:54.618Z,8.823242188
2023-04-10T01:22:55.166Z,8.833312988
2023-04-10T01:23:56.258Z,8.762817383
2023-04-10T01:24:56.390Z,8.73260498
2023-04-10T01:25:57.085Z,8.672180176
2023-04-10T01:26:57.567Z,8.652038574
2023-04-10T01:27:58.023Z,8.641967773
2023-04-10T01:28:58.586Z,8.631896973
2023-04-10T01:29:59.197Z,8.682250977
2023-04-10T01:30:59.955Z,8.682250977
2023-04-10T01:32:00.486Z,8.762817383
2023-04-10T01:33:01.139Z,8.833312988
2023-04-10T01:34:01.691Z,8.913879395
2023-04-10T01:35:02.140Z,8.883666992
2023-04-10T01:36:02.979Z,8.793029785
2023-04-10T01:37:03.428Z,8.682250977
2023-04-10T01:38:04.164Z,8.672180176
2023-04-10T01:39:05.345Z,8.672180176
2023-04-10T01:40:05.804Z,8.672180176
2023-04-10T01:41:06.483Z,8.712463379
2023-04-10T01:42:07.036Z,8.702392578
2023-04-10T01:43:07.757Z,8.712463379
2023-04-10T01:44:08.348Z,8.73260498
2023-04-10T01:45:08.896Z,8.652038574
2023-04-10T01:46:09.445Z,8.641967773
2023-04-10T01:47:09.995Z,8.641967773
2023-04-10T01:48:10.461Z,8.631896973
2023-04-10T01:49:11.069Z,8.581542969
2023-04-10T01:50:11.564Z,8.641967773
2023-04-10T01:51:12.059Z,8.631896973
2023-04-10T01:52:12.571Z,8.641967773
2023-04-10T01:53:13.113Z,8.581542969
2023-04-10T01:54:13.659Z,8.672180176
2023-04-10T01:55:14.209Z,8.682250977
2023-04-10T01:56:14.693Z,8.702392578
2023-04-10T01:57:15.331Z,8.702392578
2023-04-10T01:58:15.819Z,8.752746582
2023-04-10T01:59:16.463Z,8.762817383
2023-04-10T02:00:17.106Z,8.762817383
2023-04-10T02:01:28.400Z,8.752746582
2023-04-10T02:02:18.211Z,8.641967773
2023-04-10T02:03:18.951Z,8.60168457
2023-04-10T02:04:19.440Z,8.541259766
2023-04-10T02:05:19.766Z,8.490905762
2023-04-10T02:06:50.923Z,8.551330566
2023-04-10T02:07:51.431Z,8.500976563
2023-04-10T02:08:51.981Z,8.500976563
2023-04-10T02:09:52.642Z,8.47076416
2023-04-10T02:10:53.035Z,8.460693359
2023-04-10T02:11:53.525Z,8.450622559
2023-04-10T02:12:54.098Z,8.500976563
2023-04-10T02:13:54.898Z,8.551330566
2023-04-10T02:14:55.322Z,8.571472168
2023-04-10T02:15:55.848Z,8.571472168
2023-04-10T02:16:56.296Z,8.490905762
2023-04-10T02:17:57.045Z,8.460693359
2023-04-10T02:18:57.548Z,8.460693359
2023-04-10T02:19:58.167Z,8.460693359
2023-04-10T02:20:58.604Z,8.47076416
2023-04-10T02:21:59.094Z,8.490905762
2023-04-10T02:22:59.582Z,8.500976563
2023-04-10T02:24:00.156Z,8.47076416
2023-04-10T02:25:00.703Z,8.47076416
2023-04-10T02:26:01.163Z,8.430480957
2023-04-10T02:27:01.749Z,8.400268555
2023-04-10T02:28:02.260Z,8.420410156
2023-04-10T02:29:02.789Z,8.430480957
2023-04-10T02:30:03.493Z,8.450622559
2023-04-10T02:31:03.986Z,8.400268555
2023-04-10T02:32:04.417Z,8.370056152
2023-04-10T02:33:04.905Z,8.450622559
2023-04-10T02:34:05.334Z,8.500976563
2023-04-10T02:35:06.003Z,8.450622559
2023-04-10T02:36:06.570Z,8.430480957
2023-04-10T02:37:06.989Z,8.33984375
2023-04-10T02:38:07.563Z,8.269348145
2023-04-10T02:39:08.009Z,8.168640137
2023-04-10T02:40:08.647Z,8.098144531
2023-04-10T02:41:09.020Z,8.037719727
2023-04-10T02:42:09.557Z,8.037719727
2023-04-10T02:43:10.044Z,8.037719727
2023-04-10T02:44:10.518Z,8.027648926
2023-04-10T02:45:11.086Z,8.057861328
2023-04-10T02:46:11.580Z,8.057861328
2023-04-10T02:47:12.208Z,8.057861328
2023-04-10T02:48:12.701Z,8.067932129
2023-04-10T02:49:13.156Z,8.057861328
2023-04-10T02:50:13.621Z,8.128356934
2023-04-10T02:51:14.110Z,8.178710938
2023-04-10T02:52:14.680Z,8.218994141
2023-04-10T02:53:15.284Z,8.198852539
2023-04-10T02:54:15.842Z,8.138427734
2023-04-10T02:55:16.364Z,8.08807373
2023-04-10T02:56:16.816Z,8.098144531
2023-04-10T02:57:17.320Z,8.098144531
2023-04-10T02:58:17.827Z,8.138427734
2023-04-10T02:59:18.344Z,8.168640137
2023-04-10T03:00:18.875Z,8.118286133
2023-04-10T03:01:19.878Z,8.098144531
2023-04-10T03:02:50.887Z,8.067932129
2023-04-10T03:03:51.342Z,8.128356934
2023-04-10T03:04:51.830Z,8.20892334
2023-04-10T03:05:52.316Z,8.198852539
2023-04-10T03:06:52.785Z,8.249206543
2023-04-10T03:07:53.315Z,8.269348145
2023-04-10T03:08:53.811Z,8.218994141
2023-04-10T03:09:54.406Z,8.178710938
2023-04-10T03:10:54.933Z,8.168640137
2023-04-10T03:11:55.434Z,8.218994141
2023-04-10T03:12:56.018Z,8.269348145
2023-04-10T03:13:56.630Z,8.20892334
2023-04-10T03:14:57.009Z,8.198852539
2023-04-10T03:15:57.568Z,8.118286133
2023-04-10T03:16:57.966Z,8.118286133
2023-04-10T03:17:58.521Z,8.168640137
2023-04-10T03:18:59.029Z,8.118286133
2023-04-10T03:19:59.546Z,8.098144531
2023-04-10T03:21:00.126Z,8.098144531
2023-04-10T03:22:00.620Z,8.118286133
2023-04-10T03:23:01.125Z,8.168640137
2023-04-10T03:24:01.665Z,8.198852539
2023-04-10T03:25:02.233Z,8.20892334
2023-04-10T03:26:03.161Z,8.309631348
2023-04-10T03:27:03.576Z,8.309631348
2023-04-10T03:28:04.168Z,8.33984375
2023-04-10T03:29:04.666Z,8.309631348
2023-04-10T03:30:05.283Z,8.249206543
2023-04-10T03:31:06.008Z,8.20892334
2023-04-10T03:32:06.362Z,8.178710938
2023-04-10T03:33:06.927Z,8.178710938
2023-04-10T03:34:07.457Z,8.168640137
2023-04-10T03:35:08.061Z,8.098144531
2023-04-10T03:36:08.706Z,8.08807373
2023-04-10T03:37:09.129Z,8.128356934
2023-04-10T03:38:09.657Z,8.20892334
2023-04-10T03:39:10.147Z,8.20892334
2023-04-10T03:40:10.686Z,8.20892334
2023-04-10T03:41:11.261Z,8.138427734
2023-04-10T03:42:11.738Z,8.178710938
2023-04-10T03:43:12.286Z,8.249206543
2023-04-10T03:44:12.833Z,8.289489746
2023-04-10T03:45:13.353Z,8.289489746
2023-04-10T03:46:13.962Z,8.269348145
2023-04-10T03:47:14.508Z,8.239135742
2023-04-10T03:48:15.007Z,8.138427734
2023-04-10T03:49:15.509Z,8.098144531
2023-04-10T03:50:16.034Z,8.067932129
2023-04-10T03:51:16.667Z,8.057861328
2023-04-10T03:52:17.130Z,8.08807373
2023-04-10T03:53:17.733Z,8.027648926
2023-04-10T03:54:18.303Z,8.027648926
2023-04-10T03:55:19.299Z,7.987365723
2023-04-10T03:56:50.131Z,7.937011719
2023-04-10T03:57:50.673Z,7.94708252
2023-04-10T03:58:51.401Z,7.997436523
2023-04-10T03:59:51.940Z,7.997436523
2023-04-10T04:00:52.452Z,7.95715332
2023-04-10T04:01:53.250Z,7.94708252
2023-04-10T04:02:53.754Z,7.94708252
2023-04-10T04:03:54.613Z,7.997436523
2023-04-10T04:04:54.608Z,7.94708252
2023-04-10T04:05:55.121Z,7.937011719
2023-04-10T04:06:55.660Z,8.017578125
2023-04-10T04:07:56.128Z,8.017578125
2023-04-10T04:08:56.653Z,8.037719727
2023-04-10T04:09:57.358Z,8.027648926
2023-04-10T04:10:57.927Z,8.027648926
2023-04-10T04:11:58.568Z,7.997436523
2023-04-10T04:12:59.077Z,7.987365723
2023-04-10T04:13:59.635Z,8.017578125
2023-04-10T04:15:00.194Z,7.987365723
2023-04-10T04:16:00.735Z,8.017578125
2023-04-10T04:17:01.451Z,7.997436523
2023-04-10T04:18:01.910Z,8.027648926
2023-04-10T04:19:02.757Z,8.017578125
2023-04-10T04:20:03.334Z,8.027648926
2023-04-10T04:21:03.869Z,7.987365723
2023-04-10T04:22:04.492Z,7.95715332
2023-04-10T04:23:04.940Z,7.906799316
2023-04-10T04:24:05.554Z,7.987365723
2023-04-10T04:25:06.026Z,7.94708252
2023-04-10T04:26:06.564Z,7.937011719
2023-04-10T04:27:07.073Z,7.876586914
2023-04-10T04:28:07.641Z,7.836303711
2023-04-10T04:29:08.085Z,7.846374512
2023-04-10T04:30:08.715Z,7.856445313
2023-04-10T04:31:09.293Z,7.806091309
2023-04-10T04:32:09.862Z,7.735595703
2023-04-10T04:33:10.344Z,7.6953125
2023-04-10T04:34:10.957Z,7.765808105
2023-04-10T04:35:11.535Z,7.765808105
2023-04-10T04:36:12.124Z,7.755737305
2023-04-10T04:37:12.686Z,7.735595703
2023-04-10T04:38:13.075Z,7.6953125
2023-04-10T04:39:13.643Z,7.634887695
2023-04-10T04:40:14.181Z,7.655029297
2023-04-10T04:41:14.711Z,7.785949707
2023-04-10T04:42:15.321Z,7.735595703
2023-04-10T04:43:15.919Z,7.755737305
2023-04-10T04:44:16.419Z,7.755737305
2023-04-10T04:45:16.976Z,7.735595703
2023-04-10T04:46:17.669Z,7.705383301
2023-04-10T04:47:18.855Z,7.655029297
2023-04-10T04:48:49.422Z,7.624816895
2023-04-10T04:49:50.001Z,7.554321289
2023-04-10T04:50:50.551Z,7.514038086
2023-04-10T04:51:51.044Z,7.483825684
2023-04-10T04:52:51.592Z,7.574462891
2023-04-10T04:53:52.415Z,7.574462891
2023-04-10T04:54:52.672Z,7.634887695
2023-04-10T04:55:53.121Z,7.685241699
2023-04-10T04:56:53.653Z,7.725524902
2023-04-10T04:57:54.157Z,7.765808105
2023-04-10T04:59:55.258Z,7.725524902
2023-04-10T05:00:55.704Z,7.725524902
2023-04-10T05:01:56.353Z,7.655029297
2023-04-10T05:02:56.832Z,7.604675293
2023-04-10T05:03:57.203Z,7.634887695
2023-04-10T05:04:57.647Z,7.655029297
2023-04-10T05:05:58.125Z,7.624816895
2023-04-10T05:06:58.597Z,7.574462891
2023-04-10T05:07:59.174Z,7.634887695
2023-04-10T05:08:59.645Z,7.655029297
2023-04-10T05:10:00.240Z,7.584533691
2023-04-10T05:11:00.686Z,7.604675293
2023-04-10T05:12:01.184Z,7.604675293
2023-04-10T05:13:01.668Z,7.584533691
2023-04-10T05:14:02.231Z,7.685241699
2023-04-10T05:15:02.837Z,7.755737305
2023-04-10T05:16:03.373Z,7.735595703
2023-04-10T05:17:03.952Z,7.735595703
2023-04-10T05:18:04.301Z,7.705383301
2023-04-10T05:19:04.813Z,7.705383301
2023-04-10T05:20:05.352Z,7.755737305
2023-04-10T05:21:05.741Z,7.765808105
2023-04-10T05:22:06.198Z,7.735595703
2023-04-10T05:23:06.631Z,7.725524902
2023-04-10T05:24:07.191Z,7.755737305
2023-04-10T05:25:07.814Z,7.765808105
2023-04-10T05:26:08.337Z,7.806091309
2023-04-10T05:27:08.665Z,7.906799316
2023-04-10T05:28:09.175Z,7.937011719
2023-04-10T05:29:09.672Z,7.906799316
2023-04-10T05:30:10.169Z,7.95715332
2023-04-10T05:31:10.708Z,8.017578125
2023-04-10T05:32:11.139Z,7.987365723
2023-04-10T05:33:11.648Z,8.057861328
2023-04-10T05:34:12.186Z,8.017578125
2023-04-10T05:35:12.671Z,7.94708252
2023-04-10T05:36:13.287Z,7.876586914
2023-04-10T05:37:13.637Z,7.785949707
2023-04-10T05:38:14.137Z,7.765808105
2023-04-10T05:39:14.701Z,7.806091309
2023-04-10T05:40:15.258Z,7.765808105
2023-04-10T05:41:15.723Z,7.755737305
2023-04-10T05:42:16.204Z,7.785949707
2023-04-10T05:43:16.689Z,7.806091309
2023-04-10T05:44:17.252Z,7.725524902
2023-04-10T05:45:48.323Z,7.685241699
2023-04-10T05:46:48.854Z,7.634887695
2023-04-10T05:47:49.410Z,7.624816895
2023-04-10T05:48:49.826Z,7.705383301
2023-04-10T05:49:50.450Z,7.785949707
2023-04-10T05:50:50.915Z,7.765808105
2023-04-10T05:51:51.438Z,7.735595703
2023-04-10T05:52:51.916Z,7.705383301
2023-04-10T05:53:52.360Z,7.6953125
2023-04-10T05:54:52.900Z,7.725524902
2023-04-10T05:55:53.484Z,7.725524902
2023-04-10T05:56:54.018Z,7.725524902
2023-04-10T05:57:54.487Z,7.735595703
2023-04-10T05:58:55.132Z,7.755737305
2023-04-10T05:59:55.532Z,7.765808105
2023-04-10T06:00:55.927Z,7.785949707
2023-04-10T06:01:56.454Z,7.846374512
2023-04-10T06:02:57.007Z,7.846374512
2023-04-10T06:03:57.594Z,7.876586914
2023-04-10T06:04:57.964Z,7.846374512
2023-04-10T06:05:58.357Z,7.856445313
2023-04-10T06:06:58.888Z,7.906799316
2023-04-10T06:07:59.395Z,7.937011719
2023-04-10T06:08:59.871Z,7.987365723
2023-04-10T06:10:00.331Z,8.057861328
2023-04-10T06:11:00.905Z,8.128356934
2023-04-10T06:12:01.446Z,8.168640137
2023-04-10T06:13:01.917Z,8.168640137
2023-04-10T06:14:02.672Z,8.168640137
2023-04-10T06:15:03.222Z,8.249206543
2023-04-10T06:16:03.867Z,8.218994141
2023-04-10T06:17:04.326Z,8.178710938
2023-04-10T06:18:04.842Z,8.118286133
2023-04-10T06:19:05.269Z,8.098144531
2023-04-10T06:20:05.774Z,8.08807373
2023-04-10T06:21:06.242Z,8.08807373
2023-04-10T06:22:06.759Z,8.098144531
2023-04-10T06:23:07.267Z,8.08807373
2023-04-10T06:24:07.763Z,8.08807373
2023-04-10T06:25:08.276Z,8.057861328
2023-04-10T06:26:08.644Z,8.057861328
2023-04-10T06:27:09.169Z,8.037719727
2023-04-10T06:28:09.733Z,8.027648926
2023-04-10T06:29:10.361Z,8.057861328
2023-04-10T06:30:10.894Z,8.057861328
2023-04-10T06:31:11.208Z,8.098144531
2023-04-10T06:32:11.716Z,8.178710938
2023-04-10T06:33:12.234Z,8.218994141
2023-04-10T06:34:12.712Z,8.269348145
2023-04-10T06:35:13.211Z,8.319702148
2023-04-10T06:36:13.698Z,8.289489746
2023-04-10T06:37:14.214Z,8.269348145
2023-04-10T06:38:14.720Z,8.239135742
2023-04-10T06:39:15.250Z,8.178710938
2023-04-10T06:40:15.691Z,8.198852539
2023-04-10T06:41:16.188Z,8.249206543
2023-04-10T06:42:17.149Z,8.390197754
2023-04-10T06:43:47.879Z,8.450622559
2023-04-10T06:44:48.398Z,8.500976563
2023-04-10T06:45:48.905Z,8.581542969
2023-04-10T06:46:49.401Z,8.60168457
2023-04-10T06:47:49.940Z,8.652038574
2023-04-10T06:48:50.375Z,8.702392578
2023-04-10T06:49:50.876Z,8.712463379
2023-04-10T06:50:51.344Z,8.652038574
2023-04-10T06:51:51.778Z,8.672180176
2023-04-10T06:52:52.341Z,8.652038574
2023-04-10T06:53:52.840Z,8.652038574
2023-04-10T06:54:53.399Z,8.611755371
2023-04-10T06:55:53.892Z,8.631896973
2023-04-10T06:56:54.301Z,8.631896973
2023-04-10T06:57:54.888Z,8.652038574
2023-04-10T06:58:55.602Z,8.672180176
2023-04-10T06:59:55.888Z,8.682250977
2023-04-10T07:00:56.468Z,8.73260498
2023-04-10T07:01:56.856Z,8.762817383
2023-04-10T07:02:57.411Z,8.803100586
2023-04-10T07:03:57.920Z,8.863525391
2023-04-10T07:04:58.436Z,8.883666992
2023-04-10T07:05:58.972Z,8.913879395
2023-04-10T07:06:59.407Z,8.974304199
2023-04-10T07:07:59.849Z,9.034729004
2023-04-10T07:09:00.368Z,9.125366211
2023-04-10T07:10:01.087Z,9.185791016
2023-04-10T07:11:01.679Z,9.23614502
2023-04-10T07:12:02.266Z,9.266357422
2023-04-10T07:13:02.934Z,9.296569824
2023-04-10T07:14:03.302Z,9.336853027
2023-04-10T07:15:03.913Z,9.316711426
2023-04-10T07:16:04.541Z,9.296569824
2023-04-10T07:17:04.894Z,9.316711426
2023-04-10T07:18:05.404Z,9.296569824
2023-04-10T07:19:05.876Z,9.296569824
2023-04-10T07:20:06.375Z,9.306640625
2023-04-10T07:21:07.024Z,9.316711426
2023-04-10T07:22:07.410Z,9.36706543
2023-04-10T07:23:07.904Z,9.397277832
2023-04-10T07:24:08.481Z,9.407348633
2023-04-10T07:25:09.071Z,9.447631836
2023-04-10T07:26:09.669Z,9.487915039
2023-04-10T07:27:10.054Z,9.477844238
2023-04-10T07:28:10.529Z,9.518127441
2023-04-10T07:29:11.037Z,9.548339844
2023-04-10T07:30:13.404Z,9.588623047
2023-04-10T07:31:12.118Z,9.588623047
2023-04-10T07:32:12.615Z,9.618835449
2023-04-10T07:33:13.126Z,9.62890625
2023-04-10T07:34:13.385Z,9.669189453
2023-04-10T07:35:13.939Z,9.699401855
2023-04-10T07:36:14.491Z,9.679260254
2023-04-10T07:37:14.925Z,9.699401855
2023-04-10T07:38:15.409Z,9.729614258
2023-04-10T07:39:15.881Z,9.749755859
2023-04-10T07:40:46.878Z,9.779968262
2023-04-10T07:41:47.380Z,9.800109863
2023-04-10T07:42:47.776Z,9.810180664
2023-04-10T07:43:48.207Z,9.830322266
2023-04-10T07:44:48.687Z,9.850463867
2023-04-10T07:45:49.241Z,9.920959473
2023-04-10T07:46:49.768Z,9.951171875
2023-04-10T07:47:50.400Z,9.951171875
2023-04-10T07:48:50.855Z,9.931030273
2023-04-10T07:49:51.287Z,9.951171875
2023-04-10T07:50:51.806Z,9.981384277
2023-04-10T07:51:52.382Z,9.991455078
2023-04-10T07:52:52.840Z,9.991455078
2023-04-10T07:53:53.331Z,10.04180908
2023-04-10T07:54:53.737Z,10.06195068
2023-04-10T07:55:54.273Z,10.11230469
2023-04-10T07:56:54.785Z,10.16265869
2023-04-10T07:57:55.300Z,10.18280029
2023-04-10T07:58:56.024Z,10.2432251
2023-04-10T07:59:56.305Z,10.2633667
2023-04-10T08:00:56.777Z,10.2835083
2023-04-10T08:01:57.481Z,10.2935791
2023-04-10T08:02:58.213Z,10.3137207
2023-04-10T08:03:58.882Z,10.2633667
2023-04-10T08:04:58.968Z,10.2633667
2023-04-10T08:05:59.349Z,10.2532959
2023-04-10T08:06:59.921Z,10.2633667
2023-04-10T08:08:00.326Z,10.2835083
2023-04-10T08:09:00.830Z,10.3137207
2023-04-10T08:10:01.355Z,10.34393311
2023-04-10T08:11:01.934Z,10.38421631
2023-04-10T08:12:02.638Z,10.44464111
2023-04-10T08:13:03.150Z,10.47485352
2023-04-10T08:14:03.592Z,10.51513672
2023-04-10T08:15:04.072Z,10.53527832
2023-04-10T08:16:04.537Z,10.57556152
2023-04-10T08:17:05.104Z,10.61584473
2023-04-10T08:18:05.590Z,10.65612793
2023-04-10T08:19:06.037Z,10.71655273
2023-04-10T08:20:06.481Z,10.74676514
2023-04-10T08:21:06.935Z,10.75683594
2023-04-10T08:22:07.448Z,10.79711914
2023-04-10T08:23:19.807Z,10.82733154
2023-04-10T08:24:08.354Z,10.85754395
2023-04-10T08:25:08.845Z,10.86761475
2023-04-10T08:26:09.277Z,10.89782715
2023-04-10T08:27:09.892Z,10.93811035
2023-04-10T08:28:10.261Z,11.00860596
2023-04-10T08:29:10.796Z,11.02874756
2023-04-10T08:30:11.290Z,11.05895996
2023-04-10T08:31:11.768Z,11.07910156
2023-04-10T08:32:12.332Z,11.10931396
2023-04-10T08:33:12.697Z,11.11938477
2023-04-10T08:34:13.235Z,11.15966797
2023-04-10T08:35:13.683Z,11.18988037
2023-04-10T08:36:14.139Z,11.19995117
2023-04-10T08:37:14.592Z,11.23016357
2023-04-10T08:38:15.168Z,11.27044678
2023-04-10T08:39:46.021Z,11.23016357
2023-04-10T08:40:46.496Z,11.26037598
2023-04-10T08:41:47.102Z,11.27044678
2023-04-10T08:42:47.663Z,11.28051758
2023-04-10T08:43:48.098Z,11.31072998
2023-04-10T08:44:48.668Z,11.36108398
2023-04-10T08:45:49.088Z,11.36108398
2023-04-10T08:46:49.531Z,11.41143799
2023-04-10T08:47:50.223Z,11.45172119
2023-04-10T08:48:50.661Z,11.48193359
2023-04-10T08:49:51.347Z,11.512146
2023-04-10T08:50:51.834Z,11.5423584
2023-04-10T08:51:52.311Z,11.5625
2023-04-10T08:52:52.870Z,11.6027832
2023-04-10T08:53:53.667Z,11.64306641
2023-04-10T08:54:53.916Z,11.69342041
2023-04-10T08:55:54.515Z,11.70349121
2023-04-10T08:56:55.012Z,11.75384521
2023-04-10T08:58:00.979Z,11.77398682
2023-04-10T08:58:56.025Z,11.81427002
2023-04-10T08:59:56.547Z,11.82434082
2023-04-10T09:00:57.018Z,11.84448242
2023-04-10T09:01:57.661Z,11.84448242
2023-04-10T09:02:58.449Z,11.85455322
2023-04-10T09:03:59.053Z,11.88476563
2023-04-10T09:04:59.052Z,11.88476563
2023-04-10T09:05:59.537Z,11.92504883
2023-04-10T09:07:00.019Z,11.93511963
2023-04-10T09:08:00.746Z,11.95526123
2023-04-10T09:10:01.953Z,12.02575684
2023-04-10T09:11:02.697Z,12.03582764
2023-04-10T09:12:03.238Z,12.06604004
2023-04-10T09:13:03.792Z,12.07611084
2023-04-10T09:14:04.373Z,12.11639404
2023-04-10T09:15:04.929Z,12.11639404
2023-04-10T09:16:05.405Z,12.15667725
2023-04-10T09:17:05.921Z,12.15667725
2023-04-10T09:18:06.450Z,12.20703125
2023-04-10T09:19:07.808Z,12.22717285
2023-04-10T09:20:07.673Z,12.22717285
2023-04-10T09:21:08.068Z,12.25738525
2023-04-10T09:22:08.615Z,12.28759766
2023-04-10T09:23:09.073Z,12.29766846
2023-04-10T09:24:09.647Z,12.30773926
2023-04-10T09:25:10.269Z,12.30773926
2023-04-10T09:26:10.746Z,12.29766846
2023-04-10T09:27:11.212Z,12.29766846
2023-04-10T09:28:11.650Z,12.24731445
2023-04-10T09:29:12.164Z,12.22717285
2023-04-10T09:30:12.666Z,12.22717285
2023-04-10T09:31:13.134Z,12.24731445
2023-04-10T09:32:13.665Z,12.28759766
2023-04-10T09:33:14.182Z,12.29766846
2023-04-10T09:34:45.383Z,12.32788086
2023-04-10T09:35:45.949Z,12.33795166
2023-04-10T09:36:46.532Z,12.32788086
2023-04-10T09:37:47.065Z,12.25738525
2023-04-10T09:38:47.360Z,12.28759766
2023-04-10T09:39:47.808Z,12.28759766
2023-04-10T09:40:48.299Z,12.30773926
2023-04-10T09:41:48.739Z,12.32788086
2023-04-10T09:42:49.185Z,12.35809326
2023-04-10T09:43:49.659Z,12.33795166
2023-04-10T09:44:50.122Z,12.28759766
2023-04-10T09:45:50.602Z,12.24731445
2023-04-10T09:46:51.098Z,12.28759766
2023-04-10T09:47:51.536Z,12.30773926
2023-04-10T09:48:52.156Z,12.32788086
2023-04-10T09:49:52.766Z,12.36816406
2023-04-10T09:50:53.220Z,12.37823486
2023-04-10T09:51:53.592Z,12.40844727
2023-04-10T09:52:54.053Z,12.43865967
2023-04-10T09:53:54.662Z,12.45880127
2023-04-10T09:54:54.975Z,12.48901367
2023-04-10T09:55:55.427Z,12.51922607
2023-04-10T09:56:55.908Z,12.53936768
2023-04-10T09:57:56.361Z,12.55950928
2023-04-10T09:58:56.937Z,12.57965088
2023-04-10T09:59:57.319Z,12.57965088
2023-04-10T10:00:57.783Z,12.61993408
2023-04-10T10:01:58.301Z,12.63000488
2023-04-10T10:02:58.793Z,12.61993408
2023-04-10T10:03:59.136Z,12.63000488
2023-04-10T10:04:59.633Z,12.66021729
2023-04-10T10:06:00.082Z,12.67028809
2023-04-10T10:07:00.500Z,12.67028809
2023-04-10T10:08:00.938Z,12.63000488
2023-04-10T10:09:01.476Z,12.63000488
2023-04-10T10:10:01.944Z,12.67028809
2023-04-10T10:11:02.650Z,12.67028809
2023-04-10T10:12:03.128Z,12.70050049
2023-04-10T10:13:03.731Z,12.73071289
2023-04-10T10:14:04.175Z,12.73071289
2023-04-10T10:15:04.660Z,12.74078369
2023-04-10T10:16:05.138Z,12.7911377
2023-04-10T10:17:05.475Z,12.8112793
2023-04-10T10:18:06.025Z,12.8515625
2023-04-10T10:19:06.474Z,12.8817749
2023-04-10T10:20:06.908Z,12.9119873
2023-04-10T10:21:07.415Z,12.95227051
2023-04-10T10:22:07.832Z,12.98248291
2023-04-10T10:23:08.300Z,13.01269531
2023-04-10T10:24:08.719Z,13.04290771
2023-04-10T10:25:09.263Z,13.09326172
2023-04-10T10:26:09.793Z,13.12347412
2023-04-10T10:27:10.126Z,13.14361572
2023-04-10T10:28:10.581Z,13.17382813
2023-04-10T10:29:11.024Z,13.21411133
2023-04-10T10:30:25.164Z,13.22418213
2023-04-10T10:31:12.115Z,13.27453613
2023-04-10T10:32:12.429Z,13.31481934
2023-04-10T10:33:12.905Z,13.37524414
2023-04-10T10:34:13.385Z,13.38531494
2023-04-10T10:35:44.582Z,13.40545654
2023-04-10T10:36:45.117Z,13.46588135
2023-04-10T10:37:45.551Z,13.47595215
2023-04-10T10:38:46.050Z,13.50616455
2023-04-10T10:39:46.629Z,13.53637695
2023-04-10T10:40:47.178Z,13.56658936
2023-04-10T10:41:47.669Z,13.61694336
2023-04-10T10:42:48.251Z,13.65722656
2023-04-10T10:43:48.751Z,13.67736816
2023-04-10T10:44:49.298Z,13.71765137
2023-04-10T10:45:49.996Z,13.74786377
2023-04-10T10:46:50.672Z,13.75793457
2023-04-10T10:47:51.218Z,13.80828857
2023-04-10T10:48:51.764Z,13.82843018
2023-04-10T10:49:52.574Z,13.83850098
2023-04-10T10:50:53.102Z,13.82843018
2023-04-10T10:51:53.629Z,13.83850098
2023-04-10T10:52:54.133Z,13.85864258
2023-04-10T10:53:54.626Z,13.83850098
2023-04-10T10:54:59.404Z,13.87878418
2023-04-10T10:55:55.610Z,13.90899658
2023-04-10T10:56:56.423Z,13.95935059
2023-04-10T10:57:56.821Z,14.00970459
2023-04-10T10:58:57.517Z,14.01977539
2023-04-10T10:59:57.968Z,14.04998779
2023-04-10T11:00:58.438Z,14.1104126
2023-04-10T11:01:59.138Z,14.1607666
2023-04-10T11:02:59.512Z,14.1708374